createdAt,value
2023-05-18T00:00:10.828Z,14.35
2023-05-18T00:02:42.841Z,12.90
2023-05-18T00:05:12.359Z,12.70
2023-05-18T00:07:43.389Z,13.05
2023-05-18T00:10:14.254Z,11.75
2023-05-18T00:12:43.824Z,12.82
2023-05-18T00:15:13.327Z,13.50
2023-05-18T00:17:48.383Z,14.13
2023-05-18T00:20:18.274Z,13.48
2023-05-18T00:22:47.881Z,13.88
2023-05-18T00:25:17.333Z,13.05
2023-05-18T00:27:49.052Z,14.13
2023-05-18T00:32:49.691Z,13.68
2023-05-18T00:35:19.681Z,13.90
2023-05-18T00:37:50.004Z,12.77
2023-05-18T00:40:19.809Z,12.57
2023-05-18T00:42:49.259Z,12.55
2023-05-18T00:45:20.385Z,12.38
2023-05-18T00:47:57.134Z,11.95
2023-05-18T00:50:27.444Z,12.60
2023-05-18T00:52:57.413Z,13.80
2023-05-18T00:55:27.620Z,12.82
2023-05-18T00:57:58.785Z,13.15
2023-05-18T01:00:28.656Z,12.85
2023-05-18T01:03:01.877Z,12.63
2023-05-18T01:05:36.754Z,13.40
2023-05-18T01:08:06.173Z,13.00
2023-05-18T01:10:38.787Z,13.13
2023-05-18T01:13:13.182Z,12.88
2023-05-18T01:15:53.986Z,12.55
2023-05-18T01:18:38.215Z,13.25
2023-05-18T01:21:21.770Z,12.32
2023-05-18T01:24:06.378Z,12.73
2023-05-18T01:26:50.932Z,12.43
2023-05-18T01:29:22.850Z,11.80
2023-05-18T01:31:52.341Z,12.25
2023-05-18T01:34:21.702Z,11.88
2023-05-18T01:36:51.665Z,12.05
2023-05-18T01:39:26.004Z,12.02
2023-05-18T01:42:07.552Z,11.88
2023-05-18T01:44:46.903Z,12.45
2023-05-18T01:47:18.010Z,12.38
2023-05-18T01:49:58.745Z,13.13
2023-05-18T01:52:34.048Z,12.18
2023-05-18T01:55:11.673Z,12.73
2023-05-18T01:57:47.528Z,13.25
2023-05-18T02:00:19.579Z,13.40
2023-05-18T02:02:51.657Z,13.90
2023-05-18T02:05:21.403Z,13.50
2023-05-18T02:07:51.233Z,13.50
2023-05-18T02:10:29.625Z,13.23
2023-05-18T02:13:06.744Z,12.75
2023-05-18T02:15:36.480Z,12.77
2023-05-18T02:18:08.009Z,12.70
2023-05-18T02:23:06.993Z,10.93
2023-05-18T02:25:36.867Z,11.07
2023-05-18T02:28:13.554Z,11.13
2023-05-18T02:30:43.132Z,11.48
2023-05-18T02:33:12.658Z,11.02
2023-05-18T02:35:42.752Z,12.05
2023-05-18T02:38:12.237Z,11.52
2023-05-18T02:40:41.664Z,11.25
2023-05-18T02:43:17.599Z,10.50
2023-05-18T02:45:48.219Z,11.15
2023-05-18T02:48:18.354Z,11.32
2023-05-18T02:50:50.988Z,11.75
2023-05-18T02:53:20.971Z,11.25
2023-05-18T02:55:53.776Z,11.90
2023-05-18T02:58:43.377Z,10.75
2023-05-18T03:01:20.704Z,11.50
2023-05-18T03:03:53.594Z,11.40
2023-05-18T03:06:26.057Z,12.30
2023-05-18T03:09:01.079Z,11.15
2023-05-18T03:11:44.081Z,11.20
2023-05-18T03:14:21.520Z,10.63
2023-05-18T03:16:53.466Z,11.13
2023-05-18T03:19:28.966Z,11.95
2023-05-18T03:21:58.337Z,10.73
2023-05-18T03:24:40.266Z,11.27
2023-05-18T03:27:16.310Z,11.85
2023-05-18T03:29:48.901Z,11.35
2023-05-18T03:34:48.754Z,10.65
2023-05-18T03:37:19.006Z,10.32
2023-05-18T03:39:48.405Z,11.00
2023-05-18T03:42:19.945Z,11.20
2023-05-18T03:44:56.575Z,10.70
2023-05-18T03:47:27.437Z,11.55
2023-05-18T03:50:09.973Z,10.32
2023-05-18T03:52:41.197Z,10.40
2023-05-18T03:55:15.730Z,10.15
2023-05-18T03:57:44.995Z,11.27
2023-05-18T04:00:17.375Z,10.68
2023-05-18T04:02:51.371Z,10.98
2023-05-18T04:05:30.390Z,10.20
2023-05-18T04:07:59.994Z,10.25
2023-05-18T04:10:29.412Z,10.43
2023-05-18T04:12:59.068Z,10.55
2023-05-18T04:15:30.908Z,9.52
2023-05-18T04:18:01.844Z,9.73
2023-05-18T04:20:31.970Z,9.67
2023-05-18T04:23:01.331Z,9.90
2023-05-18T04:25:35.855Z,8.93
2023-05-18T04:28:05.041Z,9.27
2023-05-18T04:30:37.819Z,9.10
2023-05-18T04:33:08.641Z,9.82
2023-05-18T04:35:58.588Z,10.50
2023-05-18T04:41:00.170Z,9.15
2023-05-18T04:43:30.105Z,9.85
2023-05-18T04:46:01.755Z,9.85
2023-05-18T04:48:33.072Z,9.52
2023-05-18T04:51:06.539Z,9.82
2023-05-18T04:53:38.688Z,8.43
2023-05-18T04:56:09.234Z,9.48
2023-05-18T04:58:38.739Z,9.03
2023-05-18T05:01:12.616Z,8.88
2023-05-18T05:03:42.297Z,8.05
2023-05-18T05:06:12.069Z,8.50
2023-05-18T05:08:47.948Z,8.30
2023-05-18T05:11:17.870Z,9.23
2023-05-18T05:13:52.386Z,7.65
2023-05-18T05:16:23.750Z,8.27
2023-05-18T05:18:54.253Z,8.07
2023-05-18T05:21:23.692Z,8.13
2023-05-18T05:24:04.534Z,8.15
2023-05-18T05:26:34.923Z,8.25
2023-05-18T05:29:04.437Z,8.85
2023-05-18T05:31:36.058Z,8.63
2023-05-18T05:34:06.057Z,8.82
2023-05-18T05:36:35.414Z,8.70
2023-05-18T05:39:05.251Z,8.90
2023-05-18T05:41:35.395Z,9.20
2023-05-18T05:44:04.841Z,8.90
2023-05-18T05:46:36.307Z,9.00
2023-05-18T05:49:06.426Z,8.57
2023-05-18T05:51:35.788Z,7.80
2023-05-18T05:54:06.126Z,9.23
2023-05-18T05:56:36.361Z,7.47
2023-05-18T05:59:05.948Z,8.15
2023-05-18T06:01:37.535Z,8.73
2023-05-18T06:04:15.643Z,7.35
2023-05-18T06:06:45.552Z,7.28
2023-05-18T06:09:15.738Z,7.43
2023-05-18T06:11:48.146Z,7.38
2023-05-18T06:14:23.896Z,7.82
2023-05-18T06:16:56.666Z,7.40
2023-05-18T06:19:27.200Z,6.68
2023-05-18T06:21:56.717Z,6.20
2023-05-18T06:24:29.076Z,6.90
2023-05-18T06:27:36.902Z,6.97
2023-05-18T06:30:37.308Z,5.95
2023-05-18T06:33:20.772Z,6.03
2023-05-18T06:35:50.348Z,5.68
2023-05-18T06:38:22.401Z,5.47
2023-05-18T06:40:57.042Z,5.75
2023-05-18T06:43:28.116Z,5.03
2023-05-18T06:46:07.697Z,4.72
2023-05-18T06:48:51.107Z,4.65
2023-05-18T06:51:25.823Z,5.25
2023-05-18T06:53:57.335Z,4.82
2023-05-18T06:56:38.383Z,4.88
2023-05-18T06:59:07.908Z,4.90
2023-05-18T07:01:37.889Z,4.18
2023-05-18T07:04:09.821Z,4.70
2023-05-18T07:09:08.445Z,4.93
2023-05-18T07:11:45.044Z,4.80
2023-05-18T07:14:14.525Z,4.40
2023-05-18T07:16:43.996Z,4.03
2023-05-18T07:19:16.134Z,4.65
2023-05-18T07:21:45.582Z,4.60
2023-05-18T07:24:14.867Z,4.63
2023-05-18T07:26:44.266Z,4.65
2023-05-18T07:29:18.700Z,3.95
2023-05-18T07:31:48.178Z,4.38
2023-05-18T07:34:19.879Z,4.43
2023-05-18T07:36:57.420Z,4.50
2023-05-18T07:39:28.995Z,4.60
2023-05-18T07:42:04.008Z,3.92
2023-05-18T07:44:33.708Z,4.35
2023-05-18T07:47:03.293Z,4.68
2023-05-18T07:49:40.445Z,4.65
2023-05-18T07:52:10.106Z,4.38
2023-05-18T07:54:39.645Z,4.65
2023-05-18T07:57:09.074Z,4.55
2023-05-18T07:59:51.263Z,4.65
2023-05-18T08:02:27.366Z,3.83
2023-05-18T08:04:59.036Z,4.45
2023-05-18T08:07:30.052Z,4.90
2023-05-18T08:09:59.435Z,4.70
2023-05-18T08:12:29.648Z,4.95
2023-05-18T08:14:59.247Z,4.32
2023-05-18T08:17:28.630Z,4.82
2023-05-18T08:20:11.343Z,4.63
2023-05-18T08:22:40.987Z,4.35
2023-05-18T08:27:48.533Z,4.97
2023-05-18T08:30:21.142Z,4.43
2023-05-18T08:32:56.619Z,4.80
2023-05-18T08:35:28.209Z,4.28
2023-05-18T08:37:57.700Z,4.60
2023-05-18T08:40:35.631Z,4.63
2023-05-18T08:43:18.803Z,4.82
2023-05-18T08:46:05.874Z,4.38
2023-05-18T08:48:41.155Z,4.32
2023-05-18T08:51:14.044Z,4.90
2023-05-18T08:53:53.718Z,4.50
2023-05-18T08:56:32.677Z,4.72
2023-05-18T08:59:07.374Z,4.65
2023-05-18T09:01:37.388Z,4.22
2023-05-18T09:04:12.959Z,4.20
2023-05-18T09:06:44.614Z,4.43
2023-05-18T09:09:15.915Z,4.40
2023-05-18T09:11:46.549Z,4.25
2023-05-18T09:14:25.975Z,4.15
2023-05-18T09:16:56.103Z,4.38
2023-05-18T09:19:26.073Z,4.35
2023-05-18T09:21:57.261Z,4.90
2023-05-18T09:24:38.491Z,4.30
2023-05-18T09:27:08.283Z,4.30
2023-05-18T09:29:37.583Z,4.60
2023-05-18T09:32:13.044Z,4.30
2023-05-18T09:34:45.227Z,4.78
2023-05-18T09:37:18.818Z,4.63
2023-05-18T09:40:01.311Z,4.32
2023-05-18T09:42:39.777Z,4.40
2023-05-18T09:45:19.068Z,4.32
2023-05-18T09:47:48.913Z,4.65
2023-05-18T09:50:21.145Z,4.57
2023-05-18T09:52:53.095Z,4.57
2023-05-18T09:55:22.764Z,4.50
2023-05-18T09:57:53.343Z,4.07
2023-05-18T10:00:25.549Z,4.10
2023-05-18T10:02:56.185Z,4.07
2023-05-18T10:05:35.692Z,4.20
2023-05-18T10:08:07.618Z,4.60
2023-05-18T10:13:21.309Z,4.50
2023-05-18T10:15:53.924Z,4.25
2023-05-18T10:18:25.875Z,4.18
2023-05-18T10:20:59.866Z,4.35
2023-05-18T10:23:38.743Z,4.53
2023-05-18T10:26:10.136Z,4.18
2023-05-18T10:28:49.987Z,4.55
2023-05-18T10:31:19.567Z,4.40
2023-05-18T10:33:49.671Z,4.30
2023-05-18T10:36:20.455Z,4.30
2023-05-18T10:38:52.197Z,5.00
2023-05-18T10:41:24.450Z,4.85
2023-05-18T10:44:03.337Z,3.95
2023-05-18T10:46:33.314Z,4.38
2023-05-18T10:49:12.908Z,4.32
2023-05-18T10:51:46.050Z,4.43
2023-05-18T10:54:19.123Z,3.97
2023-05-18T10:56:56.210Z,4.10
2023-05-18T10:59:26.054Z,4.13
2023-05-18T11:01:56.497Z,4.50
2023-05-18T11:04:27.056Z,4.40
2023-05-18T11:06:59.618Z,3.90
2023-05-18T11:09:32.165Z,4.80
2023-05-18T11:14:37.954Z,4.60
2023-05-18T11:17:21.993Z,4.65
2023-05-18T11:20:20.910Z,4.15
2023-05-18T11:22:53.454Z,4.47
2023-05-18T11:25:50.833Z,4.35
2023-05-18T11:28:29.649Z,4.80
2023-05-18T11:30:59.056Z,5.35
2023-05-18T11:33:30.653Z,4.50
2023-05-18T11:36:03.737Z,5.40
2023-05-18T11:38:49.104Z,4.40
2023-05-18T11:41:36.550Z,4.70
2023-05-18T11:44:09.874Z,4.50
2023-05-18T11:46:39.317Z,4.85
2023-05-18T11:49:10.157Z,4.15
2023-05-18T11:52:09.061Z,3.67
2023-05-18T11:54:43.072Z,3.97
2023-05-18T11:57:15.780Z,4.40
2023-05-18T11:59:46.995Z,4.38
2023-05-18T12:02:26.547Z,4.20
2023-05-18T12:05:02.087Z,4.65
2023-05-18T12:07:33.506Z,4.32
2023-05-18T12:12:35.544Z,4.15
2023-05-18T12:15:06.704Z,4.07
2023-05-18T12:17:42.758Z,4.32
2023-05-18T12:20:21.034Z,4.00
2023-05-18T12:22:52.738Z,4.22
2023-05-18T12:25:29.724Z,3.55
2023-05-18T12:28:01.877Z,4.13
2023-05-18T12:30:36.108Z,4.05
2023-05-18T12:33:11.725Z,4.32
2023-05-18T12:35:46.079Z,3.97
2023-05-18T12:38:24.900Z,4.35
2023-05-18T12:40:55.544Z,4.20
2023-05-18T12:43:27.414Z,4.30
2023-05-18T12:51:34.969Z,3.80
2023-05-18T12:54:04.835Z,4.50
2023-05-18T12:56:53.079Z,4.03
2023-05-18T12:59:29.150Z,4.30
2023-05-18T13:01:58.854Z,3.78
2023-05-18T13:04:36.180Z,3.97
2023-05-18T13:07:07.586Z,4.40
2023-05-18T13:09:36.939Z,3.75
2023-05-18T13:12:07.718Z,3.80
2023-05-18T13:14:43.452Z,3.90
2023-05-18T13:17:24.665Z,3.60
2023-05-18T13:19:59.726Z,4.00
2023-05-18T13:22:30.962Z,4.10
2023-05-18T13:25:00.360Z,4.15
2023-05-18T13:27:31.235Z,4.40
2023-05-18T13:30:00.572Z,4.00
2023-05-18T13:32:30.017Z,4.10
2023-05-18T13:34:59.438Z,3.67
2023-05-18T13:37:30.962Z,4.20
2023-05-18T13:40:00.275Z,3.67
2023-05-18T13:42:34.829Z,4.00
2023-05-18T13:45:04.198Z,3.70
2023-05-18T13:47:33.580Z,4.20
2023-05-18T13:50:02.766Z,4.57
2023-05-18T13:52:34.345Z,4.70
2023-05-18T13:55:10.685Z,4.22
2023-05-18T13:57:41.771Z,4.05
2023-05-18T14:00:13.459Z,4.47
2023-05-18T14:02:43.403Z,3.70
2023-05-18T14:05:13.693Z,3.88
2023-05-18T14:07:45.517Z,3.95
2023-05-18T14:10:15.478Z,4.43
2023-05-18T14:12:44.594Z,4.00
2023-05-18T14:15:15.341Z,3.88
2023-05-18T14:17:45.185Z,3.63
2023-05-18T14:20:14.921Z,3.20
2023-05-18T14:22:46.208Z,4.20
2023-05-18T14:27:46.505Z,4.00
2023-05-18T14:32:44.969Z,3.42
2023-05-18T14:35:14.322Z,4.10
2023-05-18T14:40:25.036Z,3.65
2023-05-18T14:42:54.216Z,3.50
2023-05-18T14:45:23.701Z,3.40
2023-05-18T14:47:53.098Z,4.18
2023-05-18T14:50:23.091Z,3.60
2023-05-18T14:52:54.673Z,3.10
2023-05-18T14:55:24.599Z,3.30
2023-05-18T14:57:53.798Z,3.53
2023-05-18T15:00:23.838Z,3.47
2023-05-18T15:02:53.076Z,3.65
2023-05-18T15:05:22.544Z,3.80
2023-05-18T15:08:03.853Z,4.10
2023-05-18T15:10:33.279Z,3.83
2023-05-18T15:13:02.749Z,3.92
2023-05-18T15:15:32.242Z,3.53
2023-05-18T15:18:01.563Z,3.72
2023-05-18T15:20:36.797Z,4.28
2023-05-18T15:25:54.442Z,3.10
2023-05-18T15:28:23.691Z,3.33
2023-05-18T15:30:54.122Z,3.22
2023-05-18T15:33:28.693Z,3.28
2023-05-18T15:36:03.003Z,3.10
2023-05-18T15:38:34.086Z,3.40
2023-05-18T15:41:03.521Z,3.67
2023-05-18T15:43:33.380Z,3.17
2023-05-18T15:46:02.789Z,3.05
2023-05-18T15:48:32.690Z,3.50
2023-05-18T15:51:02.064Z,3.33
2023-05-18T15:53:31.480Z,27.83
2023-05-18T15:56:07.907Z,3.63
2023-05-18T15:58:37.531Z,3.85
2023-05-18T16:01:07.043Z,4.18
2023-05-18T16:03:42.910Z,4.00
2023-05-18T16:06:12.661Z,3.60
2023-05-18T16:08:41.954Z,3.65
2023-05-18T16:11:18.081Z,3.17
2023-05-18T16:13:49.774Z,4.13
2023-05-18T16:16:19.402Z,3.75
2023-05-18T16:18:49.550Z,4.25
2023-05-18T16:21:19.998Z,3.80
2023-05-18T16:23:56.168Z,4.13
2023-05-18T16:26:28.018Z,4.25
2023-05-18T16:28:57.377Z,4.82
2023-05-18T16:31:27.926Z,5.10
2023-05-18T16:33:57.267Z,5.22
2023-05-18T16:36:26.710Z,4.20
2023-05-18T16:38:56.073Z,4.80
2023-05-18T16:41:38.199Z,3.47
2023-05-18T16:44:07.801Z,4.20
2023-05-18T16:46:37.169Z,4.38
2023-05-18T16:51:42.047Z,3.58
2023-05-18T16:54:11.759Z,3.72
2023-05-18T16:56:43.144Z,4.20
2023-05-18T16:59:12.544Z,4.03
2023-05-18T17:01:48.183Z,4.10
2023-05-18T17:04:17.757Z,3.83
2023-05-18T17:06:54.148Z,3.92
2023-05-18T17:09:23.819Z,3.88
2023-05-18T17:12:00.105Z,3.97
2023-05-18T17:14:29.450Z,2.92
2023-05-18T17:16:58.644Z,3.65
2023-05-18T17:19:33.078Z,3.05
2023-05-18T17:22:02.455Z,3.50
2023-05-18T17:24:36.948Z,3.97
2023-05-18T17:27:08.663Z,3.85
2023-05-18T17:29:49.216Z,3.53
2023-05-18T17:32:18.482Z,3.50
2023-05-18T17:34:47.653Z,3.70
2023-05-18T17:37:19.013Z,3.35
2023-05-18T17:39:48.234Z,3.58
2023-05-18T17:42:21.317Z,3.58
2023-05-18T17:44:51.286Z,3.42
2023-05-18T17:47:31.284Z,3.90
2023-05-18T17:50:00.976Z,3.50
2023-05-18T17:52:30.228Z,3.38
2023-05-18T17:55:04.601Z,3.70
2023-05-18T17:57:35.982Z,3.63
2023-05-18T18:00:06.862Z,4.75
2023-05-18T18:02:41.017Z,3.88
2023-05-18T18:05:16.128Z,3.63
2023-05-18T18:07:50.657Z,3.90
2023-05-18T18:10:20.682Z,4.20
2023-05-18T18:12:52.050Z,4.53
2023-05-18T18:15:28.796Z,3.92
2023-05-18T18:17:58.167Z,3.72
2023-05-18T18:20:28.771Z,4.38
2023-05-18T18:25:33.683Z,4.18
2023-05-18T18:28:05.051Z,4.32
2023-05-18T18:30:34.493Z,4.20
2023-05-18T18:33:03.798Z,4.22
2023-05-18T18:35:33.348Z,4.05
2023-05-18T18:38:03.749Z,3.95
2023-05-18T18:40:33.574Z,4.15
2023-05-18T18:43:05.305Z,4.68
2023-05-18T18:45:40.756Z,4.50
2023-05-18T18:50:51.064Z,4.88
2023-05-18T18:53:21.544Z,5.10
2023-05-18T18:55:51.297Z,4.20
2023-05-18T18:58:24.125Z,4.63
2023-05-18T19:00:54.169Z,4.20
2023-05-18T19:03:29.141Z,5.00
2023-05-18T19:05:58.729Z,4.68
2023-05-18T19:08:28.249Z,4.40
2023-05-18T19:11:02.810Z,4.40
2023-05-18T19:13:34.280Z,4.70
2023-05-18T19:16:04.057Z,4.60
2023-05-18T19:18:33.917Z,3.92
2023-05-18T19:21:03.543Z,3.83
2023-05-18T19:23:32.800Z,3.67
2023-05-18T19:26:02.107Z,4.35
2023-05-18T19:28:31.429Z,4.30
2023-05-18T19:31:03.841Z,4.30
2023-05-18T19:33:33.975Z,4.03
2023-05-18T19:36:03.471Z,3.80
2023-05-18T19:38:32.871Z,3.95
2023-05-18T19:41:02.372Z,3.85
2023-05-18T19:43:31.822Z,3.90
2023-05-18T19:46:03.348Z,3.90
2023-05-18T19:51:06.673Z,4.32
2023-05-18T19:53:36.266Z,3.83
2023-05-18T19:56:05.882Z,4.63
2023-05-18T19:58:45.426Z,4.53
2023-05-18T20:01:18.339Z,4.30
2023-05-18T20:03:49.520Z,4.20
2023-05-18T20:06:19.237Z,4.65
2023-05-18T20:08:48.807Z,3.78
2023-05-18T20:11:29.725Z,4.28
2023-05-18T20:13:59.353Z,3.90
2023-05-18T20:16:33.568Z,3.85
2023-05-18T20:19:09.208Z,4.35
2023-05-18T20:21:40.248Z,4.50
2023-05-18T20:24:09.788Z,4.55
2023-05-18T20:26:39.204Z,4.00
2023-05-18T20:29:14.060Z,4.95
2023-05-18T20:31:45.453Z,3.90
2023-05-18T20:34:20.305Z,3.90
2023-05-18T20:36:49.866Z,4.53
2023-05-18T20:39:19.350Z,4.03
2023-05-18T20:41:54.117Z,4.50
2023-05-18T20:44:27.429Z,4.30
2023-05-18T20:47:00.767Z,4.47
2023-05-18T20:49:30.287Z,3.90
2023-05-18T20:51:59.771Z,4.30
2023-05-18T20:54:29.335Z,4.25
2023-05-18T20:56:59.686Z,4.82
2023-05-18T20:59:35.710Z,4.72
2023-05-18T21:02:07.743Z,4.05
2023-05-18T21:04:37.413Z,4.45
2023-05-18T21:07:09.547Z,4.65
2023-05-18T21:09:38.940Z,4.20
2023-05-18T21:12:09.252Z,4.78
2023-05-18T21:14:43.867Z,5.10
2023-05-18T21:17:15.625Z,5.03
2023-05-18T21:19:52.032Z,5.05
2023-05-18T21:22:21.435Z,4.97
2023-05-18T21:24:50.800Z,5.65
2023-05-18T21:27:20.284Z,5.47
2023-05-18T21:29:49.572Z,5.25
2023-05-18T21:32:21.010Z,5.95
2023-05-18T21:34:50.646Z,5.68
2023-05-18T21:37:20.041Z,5.75
2023-05-18T21:39:54.604Z,5.68
2023-05-18T21:42:28.991Z,6.25
2023-05-18T21:44:58.365Z,5.60
2023-05-18T21:47:29.800Z,6.15
2023-05-18T21:52:45.226Z,6.28
2023-05-18T21:55:14.634Z,6.00
2023-05-18T21:57:44.511Z,6.25
2023-05-18T22:00:17.702Z,6.68
2023-05-18T22:02:49.006Z,6.85
2023-05-18T22:05:18.510Z,6.65
2023-05-18T22:07:48.084Z,6.70
2023-05-18T22:10:31.099Z,7.10
2023-05-18T22:13:05.992Z,7.32
2023-05-18T22:15:37.084Z,7.47
2023-05-18T22:18:19.227Z,7.13
2023-05-18T22:20:49.382Z,6.78
2023-05-18T22:23:18.660Z,7.18
2023-05-18T22:28:32.882Z,7.03
2023-05-18T22:31:02.696Z,6.75
2023-05-18T22:33:39.535Z,7.65
2023-05-18T22:36:09.281Z,7.65
2023-05-18T22:38:42.820Z,7.28
2023-05-18T22:41:12.148Z,7.32
2023-05-18T22:43:41.429Z,7.50
2023-05-18T22:46:10.964Z,8.25
2023-05-18T22:48:42.447Z,7.50
2023-05-18T22:53:47.006Z,7.65
2023-05-18T22:56:20.693Z,8.10
2023-05-18T22:58:56.174Z,8.18
2023-05-18T23:01:25.510Z,8.05
2023-05-18T23:03:57.262Z,8.45
2023-05-18T23:08:55.537Z,7.90
2023-05-18T23:11:34.656Z,7.53
2023-05-18T23:14:04.062Z,8.13
2023-05-18T23:16:33.994Z,8.52
2023-05-18T23:19:05.434Z,8.02
2023-05-18T23:21:40.504Z,7.80
2023-05-18T23:26:46.855Z,6.88
2023-05-18T23:29:16.293Z,7.85
2023-05-18T23:31:45.864Z,7.60
2023-05-18T23:34:17.675Z,6.95
2023-05-18T23:36:52.992Z,7.25
2023-05-18T23:39:29.069Z,6.55
2023-05-18T23:42:06.014Z,6.45
2023-05-18T23:44:36.188Z,7.22
2023-05-18T23:47:16.817Z,7.10
2023-05-18T23:49:54.673Z,6.45
2023-05-18T23:52:27.455Z,6.05
2023-05-18T23:54:58.365Z,6.63
2023-05-18T23:57:28.406Z,6.03
2023-05-18T23:59:58.141Z,6.40
